Time;durP1;ratioP1;P1;durP2;ratioP2;P2;SDS_P1;SDS_P2;PMS_P1;PMS_P2;Temp;Humidity;BMP_temperature;BMP_pressure;BME280_temperature;BME280_humidity;BME280_pressure;Samples;Min_cycle;Max_cycle;Signal;HPM_P1;HPM_P2
2023/09/29 00:01:43;;;;;;;14.50;10.07;;;;;;;16.84;89.53;101337.91;5034729;28;20219;-67
2023/09/29 00:04:10;;;;;;;10.87;10.27;;;;;;;16.74;90.16;101331.88;5034574;28;20242;-67
2023/09/29 00:06:36;;;;;;;12.63;9.77;;;;;;;16.83;90.24;101337.06;5034751;28;20195;-67
2023/09/29 00:09:06;;;;;;;14.93;11.17;;;;;;;17.02;89.51;101343.84;5034456;28;20253;-67
2023/09/29 00:11:33;;;;;;;10.90;10.13;;;;;;;16.93;89.71;101344.09;5034360;28;20750;-67
2023/09/29 00:13:59;;;;;;;13.20;11.60;;;;;;;16.78;90.15;101336.75;5034429;28;20203;-67
2023/09/29 00:16:26;;;;;;;17.47;11.37;;;;;;;16.75;91.13;101338.97;5034864;28;20176;-67
2023/09/29 00:18:52;;;;;;;10.20;9.60;;;;;;;16.74;91.18;101337.25;5034779;28;20200;-67
2023/09/29 00:21:20;;;;;;;11.17;10.10;;;;;;;16.73;91.18;101338.28;5034100;28;20212;-67
2023/09/29 00:23:46;;;;;;;11.30;10.07;;;;;;;16.76;91.37;101346.03;5034188;28;20196;-67
2023/09/29 00:26:13;;;;;;;12.13;10.90;;;;;;;16.74;91.25;101339.97;5034411;28;20196;-67
2023/09/29 00:28:40;;;;;;;9.57;9.03;;;;;;;16.74;91.53;101342.66;5034358;28;20196;-67
2023/09/29 00:31:08;;;;;;;11.57;10.57;;;;;;;16.73;91.57;101335.56;5034776;28;20208;-67
2023/09/29 00:33:35;;;;;;;11.37;10.60;;;;;;;16.72;91.61;101331.22;5033972;28;20274;-67
2023/09/29 00:36:02;;;;;;;10.30;9.40;;;;;;;16.72;91.53;101334.72;5033959;28;20202;-67
2023/09/29 00:38:28;;;;;;;11.97;9.93;;;;;;;16.76;91.64;101327.16;5034436;28;20188;-67
2023/09/29 00:40:55;;;;;;;16.37;10.00;;;;;;;16.76;91.62;101330.66;5032485;28;20240;-67
2023/09/29 00:43:22;;;;;;;9.30;8.70;;;;;;;16.78;91.20;101333.19;5032551;28;20192;-67
2023/09/29 00:45:49;;;;;;;9.47;8.83;;;;;;;16.77;91.52;101335.06;5033782;28;20234;-67
2023/09/29 00:48:17;;;;;;;10.70;9.70;;;;;;;16.75;91.80;101329.00;5031846;28;20250;-67
2023/09/29 00:50:45;;;;;;;9.57;8.87;;;;;;;16.72;91.51;101326.63;5033512;28;20220;-67
2023/09/29 00:53:14;;;;;;;9.60;8.97;;;;;;;16.71;91.75;101321.44;5033668;28;20191;-67
2023/09/29 00:55:42;;;;;;;12.27;9.20;;;;;;;16.71;91.71;101327.66;5033621;28;20735;-67
2023/09/29 00:58:12;;;;;;;9.83;9.13;;;;;;;16.70;91.69;101325.97;5033589;28;20188;-67
2023/09/29 01:00:40;;;;;;;8.73;8.07;;;;;;;16.69;91.76;101324.28;5034164;28;20200;-67
2023/09/29 01:03:09;;;;;;;10.10;9.27;;;;;;;16.69;92.01;101324.28;5033522;28;20221;-67
2023/09/29 01:05:38;;;;;;;8.70;8.23;;;;;;;16.68;92.37;101314.50;5033461;28;20238;-67
2023/09/29 01:08:12;;;;;;;9.67;8.83;;;;;;;16.71;92.12;101316.03;5032216;28;20199;-67
2023/09/29 01:10:40;;;;;;;9.17;8.47;;;;;;;16.72;91.89;101307.72;5033399;28;20199;-67
2023/09/29 01:13:08;;;;;;;10.10;7.70;;;;;;;16.75;91.98;101312.81;5032152;28;20198;-67
2023/09/29 01:15:36;;;;;;;7.90;7.00;;;;;;;16.77;91.98;101308.03;5032153;28;20658;-67
2023/09/29 01:18:03;;;;;;;9.53;7.07;;;;;;;16.79;92.00;101303.31;5033621;28;20237;-67
2023/09/29 01:20:30;;;;;;;7.80;7.20;;;;;;;16.80;91.88;101299.56;5033503;28;20216;-67
2023/09/29 01:22:58;;;;;;;8.03;7.37;;;;;;;16.79;92.00;101297.06;5033477;28;20203;-67
2023/09/29 01:25:24;;;;;;;8.07;7.67;;;;;;;16.80;91.88;101298.75;5031982;28;20246;-67
2023/09/29 01:27:52;;;;;;;6.60;6.30;;;;;;;16.80;91.78;101296.06;5033764;28;20196;-67
2023/09/29 01:30:18;;;;;;;6.93;6.43;;;;;;;16.83;91.37;101296.53;5033389;28;20242;-67
2023/09/29 01:32:47;;;;;;;6.27;5.93;;;;;;;16.88;91.84;101304.13;5033484;28;20172;-67
2023/09/29 01:35:17;;;;;;;5.60;5.27;;;;;;;16.96;91.45;101305.91;5033400;28;20196;-67
2023/09/29 01:37:46;;;;;;;6.13;5.90;;;;;;;17.01;91.21;101301.66;5033977;28;20226;-67
2023/09/29 01:40:17;;;;;;;5.00;4.83;;;;;;;17.06;90.94;101301.94;5033585;28;20188;-67
2023/09/29 01:42:44;;;;;;;6.07;5.63;;;;;;;17.04;90.64;101298.59;5031752;28;20623;-67
2023/09/29 01:45:12;;;;;;;4.93;4.83;;;;;;;17.03;90.50;101293.38;5033360;28;20184;-67
2023/09/29 01:47:40;;;;;;;5.93;5.27;;;;;;;16.98;90.44;101290.34;5033330;28;20632;-67
2023/09/29 01:50:07;;;;;;;5.50;5.20;;;;;;;16.96;90.56;101287.84;5033330;28;20191;-67
2023/09/29 01:52:34;;;;;;;5.53;5.33;;;;;;;16.91;90.35;101282.13;5033278;28;20180;-67
2023/09/29 01:55:03;;;;;;;5.80;5.60;;;;;;;16.89;90.56;101265.25;5031745;28;20192;-67
2023/09/29 01:57:29;;;;;;;5.57;5.47;;;;;;;16.86;90.72;101268.31;5031656;28;20664;-67
2023/09/29 01:59:56;;;;;;;5.47;5.10;;;;;;;16.85;90.54;101269.34;5032550;28;20199;-67
2023/09/29 02:02:22;;;;;;;6.07;5.47;;;;;;;16.86;90.43;101271.03;5035682;28;20270;-67
2023/09/29 02:04:49;;;;;;;5.00;5.00;;;;;;;16.86;90.45;101266.47;5037379;28;20195;-67
2023/09/29 02:07:15;;;;;;;5.27;5.13;;;;;;;16.87;90.50;101270.00;5035502;28;20188;-67
2023/09/29 02:09:42;;;;;;;4.63;4.50;;;;;;;16.88;90.39;101259.03;5035468;28;20203;-67
2023/09/29 02:12:10;;;;;;;4.77;4.67;;;;;;;16.89;90.29;101266.09;5035620;28;20208;-67
2023/09/29 02:14:36;;;;;;;5.60;4.87;;;;;;;16.88;90.21;101261.75;5035264;28;20215;-67
2023/09/29 02:17:04;;;;;;;4.60;4.40;;;;;;;16.88;90.55;101260.91;5035338;28;20227;-67
2023/09/29 02:19:37;;;;;;;5.40;5.20;;;;;;;16.89;90.74;101252.59;5035291;28;20196;-67
2023/09/29 02:22:05;;;;;;;4.87;4.77;;;;;;;16.91;90.25;101249.72;5035108;28;20557;-68
2023/09/29 02:24:31;;;;;;;5.70;5.37;;;;;;;16.90;90.27;101256.16;5037033;28;20191;-68
2023/09/29 02:26:57;;;;;;;5.30;5.20;;;;;;;16.93;90.25;101255.78;5036681;28;20602;-68
2023/09/29 02:29:25;;;;;;;6.07;5.77;;;;;;;16.95;90.61;101267.25;5036340;28;20271;-68
2023/09/29 02:31:52;;;;;;;5.53;5.33;;;;;;;16.96;90.14;101257.28;5036249;28;20234;-67
2023/09/29 02:34:19;;;;;;;5.70;5.50;;;;;;;16.98;90.39;101260.63;5036551;28;20230;-67
2023/09/29 02:36:45;;;;;;;5.87;5.67;;;;;;;16.99;90.27;101263.16;5036228;28;20242;-67
2023/09/29 02:39:12;;;;;;;6.40;5.93;;;;;;;16.97;90.32;101257.13;5036206;28;20261;-67
2023/09/29 02:41:39;;;;;;;5.23;5.00;;;;;;;16.96;90.05;101251.88;5036944;28;20207;-67
2023/09/29 02:44:07;;;;;;;5.40;5.20;;;;;;;16.98;90.09;101260.63;5034811;28;20291;-67
2023/09/29 02:46:33;;;;;;;9.00;5.30;;;;;;;16.98;90.27;101250.69;5036520;28;20195;-67
2023/09/29 02:49:00;;;;;;;5.57;5.20;;;;;;;17.00;90.13;101248.66;5034740;28;20196;-67
2023/09/29 02:51:26;;;;;;;5.20;4.90;;;;;;;16.99;90.31;101243.41;5034645;28;20208;-67
2023/09/29 02:53:54;;;;;;;5.43;5.13;;;;;;;16.98;90.46;101242.56;5036123;28;20223;-67
2023/09/29 02:56:23;;;;;;;5.53;5.33;;;;;;;16.97;89.96;101235.50;5035920;28;20562;-67
2023/09/29 02:58:52;;;;;;;6.90;5.70;;;;;;;16.96;90.24;101232.97;5036129;28;20192;-67
2023/09/29 03:01:19;;;;;;;5.87;5.60;;;;;;;16.95;90.19;101237.53;5035935;28;20216;-68
2023/09/29 03:03:47;;;;;;;6.10;5.33;;;;;;;16.97;90.04;101243.63;5034474;28;20203;-68
2023/09/29 03:06:23;;;;;;;5.10;4.93;;;;;;;17.02;90.28;101235.78;5035635;28;20184;-68
2023/09/29 03:08:54;;;;;;;6.07;5.33;;;;;;;17.03;90.20;101237.47;5035663;28;20180;-68
2023/09/29 03:11:21;;;;;;;5.40;5.20;;;;;;;17.04;90.18;101231.06;5035096;28;20215;-68
2023/09/29 03:13:48;;;;;;;5.43;5.23;;;;;;;17.04;90.10;101222.97;5035691;28;20551;-68
2023/09/29 03:16:14;;;;;;;5.47;5.10;;;;;;;17.04;90.41;101232.91;5035824;28;20230;-67
2023/09/29 03:18:42;;;;;;;5.47;5.27;;;;;;;17.04;90.43;101239.16;5035476;28;20184;-67
2023/09/29 03:21:09;;;;;;;5.00;4.90;;;;;;;17.03;89.99;101229.38;5035495;28;20211;-67
2023/09/29 03:23:36;;;;;;;4.83;4.63;;;;;;;17.04;90.04;101235.63;5035597;28;20191;-67
2023/09/29 03:26:04;;;;;;;5.07;4.97;;;;;;;17.04;90.22;101230.22;5034074;28;20200;-67
2023/09/29 03:28:34;;;;;;;5.63;5.37;;;;;;;17.03;90.21;101232.06;5035427;28;20179;-67
2023/09/29 03:31:05;;;;;;;5.60;5.37;;;;;;;17.03;89.93;101223.97;5035490;28;20212;-68
2023/09/29 03:33:32;;;;;;;5.07;4.90;;;;;;;17.03;90.46;101217.72;5035442;28;20180;-67
2023/09/29 03:35:59;;;;;;;5.23;4.87;;;;;;;17.02;90.03;101216.88;5035180;28;20618;-67
2023/09/29 03:38:26;;;;;;;5.50;5.10;;;;;;;17.04;89.95;101222.97;5035042;28;20234;-67
2023/09/29 03:40:53;;;;;;;6.17;5.20;;;;;;;17.06;89.82;101222.78;5034960;28;20211;-68
2023/09/29 03:43:21;;;;;;;5.53;5.17;;;;;;;17.08;89.69;101223.44;5036003;28;20598;-67
2023/09/29 03:45:49;;;;;;;5.93;5.47;;;;;;;17.08;89.83;101221.56;5035428;28;20195;-67
2023/09/29 03:48:16;;;;;;;5.50;5.20;;;;;;;17.10;89.51;101211.41;5034832;28;20192;-67
2023/09/29 03:50:43;;;;;;;5.60;5.30;;;;;;;17.13;89.71;101211.06;5034709;28;20208;-67
2023/09/29 03:53:10;;;;;;;8.50;5.77;;;;;;;17.13;89.81;101211.06;5035320;28;20193;-67
2023/09/29 03:55:36;;;;;;;6.60;6.00;;;;;;;17.10;89.62;101214.09;5034739;28;20191;-67
2023/09/29 03:58:03;;;;;;;5.83;5.33;;;;;;;17.13;89.92;101208.34;5034710;28;20192;-67
2023/09/29 04:00:30;;;;;;;9.20;5.40;;;;;;;17.14;89.83;101209.19;5034886;28;20212;-67
2023/09/29 04:02:57;;;;;;;6.87;6.23;;;;;;;17.16;89.71;101207.13;5034579;28;20274;-67
2023/09/29 04:05:24;;;;;;;6.70;6.10;;;;;;;17.15;89.77;101195.50;5034535;28;20188;-67
2023/09/29 04:07:50;;;;;;;6.40;6.03;;;;;;;17.15;89.36;101190.09;5034439;28;20727;-67
2023/09/29 04:10:17;;;;;;;5.57;5.17;;;;;;;17.16;89.75;101189.06;5034426;28;20188;-67
2023/09/29 04:12:47;;;;;;;6.23;5.83;;;;;;;17.17;89.37;101193.47;5034682;28;20190;-67
2023/09/29 04:15:15;;;;;;;6.10;5.80;;;;;;;17.19;89.73;101193.25;5034939;28;20619;-67
2023/09/29 04:17:41;;;;;;;5.37;5.00;;;;;;;17.20;89.59;101190.38;5034600;28;20202;-67
2023/09/29 04:20:09;;;;;;;4.83;4.73;;;;;;;17.20;89.49;101193.09;5034480;28;20202;-68
2023/09/29 04:22:35;;;;;;;7.47;5.53;;;;;;;17.24;89.33;101190.84;5034179;28;20213;-68
2023/09/29 04:25:02;;;;;;;5.67;5.47;;;;;;;17.24;89.46;101191.69;5034667;28;20188;-67
2023/09/29 04:27:29;;;;;;;5.43;5.17;;;;;;;17.28;89.16;101205.69;5034386;28;20183;-67
2023/09/29 04:29:56;;;;;;;5.37;5.17;;;;;;;17.33;89.41;101204.09;5034362;28;20184;-67
2023/09/29 04:32:22;;;;;;;9.87;5.13;;;;;;;17.30;89.36;101192.84;5033995;28;20291;-67
2023/09/29 04:34:49;;;;;;;6.20;5.67;;;;;;;17.28;89.21;101178.66;5034275;28;20242;-67
2023/09/29 04:37:15;;;;;;;6.40;5.73;;;;;;;17.27;88.79;101168.88;5033926;28;20187;-67
2023/09/29 04:39:42;;;;;;;4.13;3.93;;;;;;;17.23;89.08;101162.13;5033921;28;20266;-67
2023/09/29 04:42:09;;;;;;;6.00;5.33;;;;;;;17.22;89.12;101171.28;5033748;28;20208;-68
2023/09/29 04:44:35;;;;;;;4.67;4.47;;;;;;;17.20;89.17;101173.31;5034066;28;20243;-68
2023/09/29 04:47:02;;;;;;;7.73;5.23;;;;;;;17.21;89.58;101172.31;5034095;28;20211;-68
2023/09/29 04:49:28;;;;;;;6.90;5.30;;;;;;;17.17;89.26;101171.84;5034307;28;20176;-68
2023/09/29 04:51:54;;;;;;;5.57;5.27;;;;;;;17.17;89.76;101174.53;5034235;28;20602;-68
2023/09/29 04:54:21;;;;;;;6.43;6.10;;;;;;;17.16;89.47;101170.16;5033726;28;20180;-68
2023/09/29 04:56:47;;;;;;;4.90;4.80;;;;;;;17.15;89.72;101168.47;5033592;28;20659;-68
2023/09/29 04:59:14;;;;;;;6.13;5.90;;;;;;;17.14;89.52;101161.38;5033586;28;20280;-68
2023/09/29 05:01:40;;;;;;;5.97;5.67;;;;;;;17.15;89.80;101156.81;5033452;28;20212;-68
2023/09/29 05:04:06;;;;;;;6.07;5.57;;;;;;;17.15;89.93;101148.72;5033525;28;20242;-68
2023/09/29 05:06:33;;;;;;;7.47;6.90;;;;;;;17.15;90.07;101146.84;5033457;28;20271;-67
2023/09/29 05:09:00;;;;;;;6.73;6.30;;;;;;;17.11;89.93;101145.53;5033725;28;20184;-67
2023/09/29 05:11:27;;;;;;;6.77;6.27;;;;;;;17.12;90.05;101147.22;5033346;28;20243;-67
2023/09/29 05:13:57;;;;;;;7.33;6.53;;;;;;;17.10;90.33;101148.44;5033249;28;20655;-67
2023/09/29 05:16:24;;;;;;;5.83;5.63;;;;;;;17.07;90.57;101152.34;5033682;28;20180;-71
2023/09/29 05:18:53;;;;;;;5.90;5.77;;;;;;;17.07;90.54;101156.91;5033383;28;20190;-71
2023/09/29 05:21:20;;;;;;;6.53;5.93;;;;;;;17.06;90.12;101160.66;5033524;28;20212;-70
2023/09/29 05:23:47;;;;;;;6.00;5.80;;;;;;;17.04;90.56;101155.41;5033379;28;20200;-71
2023/09/29 05:26:13;;;;;;;5.63;5.30;;;;;;;17.02;90.74;101151.19;5033507;28;20172;-71
2023/09/29 05:28:39;;;;;;;6.03;5.63;;;;;;;17.01;90.40;101149.53;5033521;28;20179;-71
2023/09/29 05:31:06;;;;;;;5.93;5.57;;;;;;;16.99;90.52;101147.03;5033446;28;20246;-70
2023/09/29 05:33:33;;;;;;;6.33;5.93;;;;;;;16.98;90.83;101141.78;5033125;28;20233;-72
2023/09/29 05:36:00;;;;;;;8.83;6.27;;;;;;;16.99;90.69;101148.88;5032695;28;20571;-72
2023/09/29 05:38:27;;;;;;;6.10;5.77;;;;;;;16.99;91.00;101152.41;5033377;28;20211;-72
2023/09/29 05:40:54;;;;;;;5.53;5.20;;;;;;;17.03;91.27;101161.84;5033027;28;20257;-71
2023/09/29 05:43:20;;;;;;;13.53;6.30;;;;;;;17.43;89.61;101163.31;5033045;28;20204;-72
2023/09/29 05:45:47;;;;;;;5.87;5.67;;;;;;;17.21;90.04;101164.22;5033025;28;20188;-72
2023/09/29 05:48:15;;;;;;;5.93;5.63;;;;;;;17.13;90.38;101162.44;5033016;28;20556;-72
2023/09/29 05:50:42;;;;;;;5.03;4.83;;;;;;;17.11;90.70;101159.06;5033450;28;20291;-71
2023/09/29 05:53:09;;;;;;;6.47;5.90;;;;;;;17.13;90.52;101148.91;5033554;28;20589;-71
2023/09/29 05:55:37;;;;;;;6.40;5.97;;;;;;;17.11;91.15;101156.34;5033370;28;20184;-71
2023/09/29 05:58:04;;;;;;;5.83;5.37;;;;;;;17.13;91.18;101157.03;5033207;28;20196;-71
2023/09/29 06:00:31;;;;;;;6.17;5.63;;;;;;;17.11;91.17;101156.34;5032842;28;20253;-70
2023/09/29 06:02:59;;;;;;;6.33;4.83;;;;;;;17.13;91.42;101162.44;5033075;28;20326;-70
2023/09/29 06:05:27;;;;;;;5.47;5.37;;;;;;;17.15;91.20;101163.06;5032859;28;20195;-70
2023/09/29 06:07:53;;;;;;;4.40;4.30;;;;;;;17.16;91.52;101156.66;5032778;28;20196;-71
2023/09/29 06:10:23;;;;;;;6.73;4.97;;;;;;;17.15;91.89;101156.81;5033386;28;20579;-70
2023/09/29 06:12:51;;;;;;;5.90;5.30;;;;;;;17.17;91.30;101157.50;5033274;28;20238;-70
2023/09/29 06:15:18;;;;;;;6.33;4.97;;;;;;;17.17;91.58;101149.38;5032483;28;20207;-71
2023/09/29 06:17:44;;;;;;;6.43;6.00;;;;;;;17.16;91.69;101151.25;5033112;28;20188;-68
2023/09/29 06:20:11;;;;;;;5.97;4.93;;;;;;;17.16;91.63;101145.00;5032861;28;20230;-68
2023/09/29 06:22:38;;;;;;;5.67;5.57;;;;;;;17.17;91.80;101139.41;5032882;28;20227;-68
2023/09/29 06:25:05;;;;;;;5.70;5.27;;;;;;;17.18;91.30;101157.31;5032645;28;20199;-68
2023/09/29 06:27:31;;;;;;;5.63;5.17;;;;;;;17.17;91.71;101147.53;5032941;28;20529;-68
2023/09/29 06:29:58;;;;;;;6.13;5.63;;;;;;;17.17;91.92;101147.53;5033250;28;20192;-68
2023/09/29 06:32:24;;;;;;;5.90;5.40;;;;;;;17.18;91.61;101151.91;5032785;28;20203;-68
2023/09/29 06:34:51;;;;;;;5.50;5.20;;;;;;;17.20;91.86;101141.75;5032881;28;20188;-67
2023/09/29 06:37:18;;;;;;;6.07;5.47;;;;;;;17.22;91.96;101145.13;5032800;28;20192;-67
2023/09/29 06:39:45;;;;;;;6.00;5.80;;;;;;;17.21;91.89;101151.53;5033034;28;20192;-67
2023/09/29 06:42:11;;;;;;;6.47;5.67;;;;;;;17.23;92.41;101149.47;5032653;28;20266;-67
2023/09/29 06:44:38;;;;;;;5.53;5.33;;;;;;;17.30;92.02;101152.28;5032505;28;20698;-67
2023/09/29 06:47:04;;;;;;;6.37;6.07;;;;;;;17.35;92.20;101149.88;5034493;28;20194;-67
2023/09/29 06:49:31;;;;;;;5.97;5.57;;;;;;;17.41;91.82;101134.75;5036192;28;20562;-67
2023/09/29 06:51:57;;;;;;;9.60;6.03;;;;;;;17.49;91.52;101135.50;5036099;28;20587;-67
2023/09/29 06:54:24;;;;;;;5.70;5.30;;;;;;;17.55;91.64;101136.63;5035922;28;20176;-68
2023/09/29 06:56:50;;;;;;;5.53;5.33;;;;;;;17.57;91.77;101134.56;5035854;28;20271;-68
2023/09/29 06:59:17;;;;;;;5.60;5.40;;;;;;;17.63;91.80;101137.41;5035993;28;20648;-68
2023/09/29 07:01:43;;;;;;;5.60;5.50;;;;;;;17.67;91.54;101141.41;5035883;28;20224;-68
2023/09/29 07:04:10;;;;;;;7.30;5.53;;;;;;;17.73;91.41;101142.53;5035929;28;20610;-68
2023/09/29 07:06:37;;;;;;;5.77;5.27;;;;;;;17.75;91.73;101138.63;5036176;28;20246;-67
2023/09/29 07:09:03;;;;;;;6.83;6.30;;;;;;;17.77;91.84;101133.88;5035583;28;20199;-67
2023/09/29 07:11:31;;;;;;;6.17;5.80;;;;;;;17.77;91.59;101130.31;5035491;28;20265;-68
2023/09/29 07:13:57;;;;;;;8.17;5.90;;;;;;;17.83;91.54;101134.13;5035574;28;20203;-67
2023/09/29 07:16:23;;;;;;;6.00;5.80;;;;;;;17.79;91.44;101131.78;5035782;28;20690;-67
2023/09/29 07:18:50;;;;;;;5.47;5.27;;;;;;;17.84;91.66;101128.53;5036005;28;20263;-67
2023/09/29 07:21:18;;;;;;;4.57;4.47;;;;;;;17.89;91.54;101134.22;5035323;28;20576;-68
2023/09/29 07:23:45;;;;;;;5.47;5.30;;;;;;;17.94;91.12;101136.34;5035281;28;20274;-68
2023/09/29 07:26:12;;;;;;;4.93;4.63;;;;;;;17.99;91.20;101139.34;5035624;28;20583;-67
2023/09/29 07:28:39;;;;;;;7.67;5.93;;;;;;;18.06;91.45;101132.97;5035275;28;20714;-67
2023/09/29 07:31:05;;;;;;;10.97;6.80;;;;;;;18.18;91.45;101128.72;5035445;28;20266;-68
2023/09/29 07:33:32;;;;;;;7.13;6.50;;;;;;;18.29;91.33;101121.16;5035200;28;20180;-67
2023/09/29 07:35:58;;;;;;;6.43;5.90;;;;;;;18.38;91.25;101117.25;5035389;28;20188;-67
2023/09/29 07:38:25;;;;;;;7.20;6.10;;;;;;;18.47;90.88;101119.66;5035349;28;20246;-67
2023/09/29 07:40:51;;;;;;;8.73;5.50;;;;;;;18.58;90.80;101118.34;5034953;28;20212;-68
2023/09/29 07:43:18;;;;;;;6.13;4.90;;;;;;;18.68;91.16;101125.09;5035507;28;20212;-68
2023/09/29 07:45:44;;;;;;;9.70;5.60;;;;;;;18.81;90.26;101120.81;5035484;28;20250;-68
2023/09/29 07:48:15;;;;;;;8.17;5.17;;;;;;;18.92;89.26;101113.03;5035288;28;20199;-68
2023/09/29 07:50:42;;;;;;;6.83;4.83;;;;;;;18.98;88.59;101114.94;5034792;28;20211;-68
2023/09/29 07:53:11;;;;;;;7.03;5.33;;;;;;;19.05;88.62;101106.88;5035349;28;20230;-68
2023/09/29 07:55:37;;;;;;;5.03;4.53;;;;;;;19.13;88.44;101110.25;5034725;28;20192;-68
2023/09/29 07:58:04;;;;;;;5.37;4.87;;;;;;;19.27;88.18;101113.03;5034951;28;20188;-68
2023/09/29 08:00:30;;;;;;;6.07;4.47;;;;;;;19.41;87.87;101114.81;5034521;28;20214;-68
2023/09/29 08:02:57;;;;;;;5.53;5.00;;;;;;;19.64;86.60;101118.09;5034770;28;20215;-68
2023/09/29 08:05:23;;;;;;;5.40;4.90;;;;;;;19.89;85.75;101108.41;5034838;28;20187;-68
2023/09/29 08:07:50;;;;;;;4.90;4.73;;;;;;;20.06;83.35;101103.44;5034471;28;20192;-68
2023/09/29 08:10:16;;;;;;;4.63;4.40;;;;;;;20.22;82.71;101096.81;5034637;28;20188;-68
2023/09/29 08:12:43;;;;;;;4.47;4.37;;;;;;;20.32;82.23;101103.56;5034357;28;20652;-68
2023/09/29 08:15:11;;;;;;;4.67;4.47;;;;;;;20.44;81.45;101104.63;5034374;28;20207;-68
2023/09/29 08:17:37;;;;;;;4.13;4.00;;;;;;;20.59;80.21;101098.97;5034364;28;20192;-68
2023/09/29 08:20:06;;;;;;;5.03;4.70;;;;;;;20.75;79.06;101097.75;5034569;28;20186;-68
2023/09/29 08:22:32;;;;;;;7.40;3.83;;;;;;;20.78;79.34;101100.88;5034798;28;20278;-68
2023/09/29 08:25:10;;;;;;;6.00;3.87;;;;;;;20.86;79.14;101099.81;5034656;28;20176;-68
2023/09/29 08:27:38;;;;;;;4.33;4.07;;;;;;;21.00;78.97;101100.66;5034697;28;20234;-68
2023/09/29 08:30:06;;;;;;;3.40;3.40;;;;;;;21.20;77.12;101101.50;5034425;28;20200;-68
2023/09/29 08:32:37;;;;;;;4.90;3.63;;;;;;;21.37;76.73;101098.09;5034081;28;20652;-68
2023/09/29 08:35:05;;;;;;;2.93;2.90;;;;;;;21.49;75.47;101101.00;5034068;28;20180;-68
2023/09/29 08:37:31;;;;;;;4.07;3.80;;;;;;;21.61;73.50;101104.72;5034645;28;20194;-67
2023/09/29 08:39:58;;;;;;;8.03;3.80;;;;;;;21.65;73.67;101105.13;5034225;28;20242;-68
2023/09/29 08:42:37;;;;;;;3.80;3.47;;;;;;;21.76;72.38;101120.81;5033881;28;20207;-68
2023/09/29 08:45:11;;;;;;;5.63;3.30;;;;;;;21.67;73.00;101124.81;5034170;28;20258;-68
2023/09/29 08:47:43;;;;;;;2.93;2.93;;;;;;;21.65;72.67;101127.72;5033861;28;20176;-68
2023/09/29 08:50:10;;;;;;;5.10;3.30;;;;;;;21.55;73.21;101127.38;5034594;28;20646;-66
2023/09/29 08:52:40;;;;;;;2.87;2.77;;;;;;;21.39;74.14;101125.91;5033692;28;20188;-65
2023/09/29 08:55:07;;;;;;;3.27;3.10;;;;;;;21.49;72.81;101130.09;5034238;28;20537;-65
2023/09/29 08:57:34;;;;;;;2.97;2.97;;;;;;;21.65;73.25;101138.63;5033556;28;20192;-65
2023/09/29 09:00:01;;;;;;;3.70;3.47;;;;;;;21.75;73.16;101144.47;5033924;28;20721;-65
2023/09/29 09:02:27;;;;;;;10.67;3.53;;;;;;;21.52;73.02;101138.66;5033480;28;20212;-64
2023/09/29 09:04:54;;;;;;;4.87;3.03;;;;;;;21.78;72.69;101144.03;5033912;28;20603;-66
2023/09/29 09:07:21;;;;;;;7.00;4.50;;;;;;;21.67;72.47;101136.53;5034160;28;20531;-67
2023/09/29 09:09:52;;;;;;;8.80;4.27;;;;;;;21.56;72.95;101142.63;5033375;28;20172;-67
2023/09/29 09:12:34;;;;;;;5.77;4.47;;;;;;;21.65;72.03;101143.22;5033640;28;20227;-67
2023/09/29 09:15:03;;;;;;;3.90;3.60;;;;;;;21.81;71.52;101149.03;5033299;28;20279;-67
2023/09/29 09:17:33;;;;;;;4.47;4.20;;;;;;;21.79;71.43;101142.97;5032728;28;20700;-68
2023/09/29 09:20:00;;;;;;;5.60;4.23;;;;;;;22.01;69.88;101153.59;5033815;28;20219;-68
2023/09/29 09:22:32;;;;;;;4.37;3.90;;;;;;;21.92;68.84;101157.59;5033291;28;20266;-67
2023/09/29 09:25:12;;;;;;;4.20;3.90;;;;;;;21.96;69.52;101156.97;5033299;28;20523;-67
2023/09/29 09:27:41;;;;;;;9.50;4.43;;;;;;;21.89;69.11;101153.44;5033465;28;20608;-67
2023/09/29 09:30:20;;;;;;;4.43;4.07;;;;;;;21.84;69.53;101169.56;5033005;28;20192;-68
2023/09/29 09:32:47;;;;;;;3.83;3.73;;;;;;;21.78;69.73;101164.97;5033646;28;20187;-67
2023/09/29 09:35:24;;;;;;;4.57;4.33;;;;;;;21.74;68.83;101169.16;5033702;28;20211;-67
2023/09/29 09:37:51;;;;;;;4.37;4.20;;;;;;;21.73;69.65;101168.31;5033657;28;20191;-67
2023/09/29 09:40:25;;;;;;;4.30;4.00;;;;;;;21.86;69.77;101181.06;5033350;28;20591;-68
2023/09/29 09:42:54;;;;;;;14.83;4.83;;;;;;;21.97;69.06;101183.16;5033231;28;20206;-67
2023/09/29 09:45:25;;;;;;;4.37;4.17;;;;;;;22.03;69.47;101192.34;5032984;28;20212;-67
2023/09/29 09:47:59;;;;;;;6.20;4.30;;;;;;;21.94;68.42;101183.56;5033259;28;20259;-67
2023/09/29 09:50:28;;;;;;;4.03;3.83;;;;;;;21.86;68.75;101173.72;5032781;28;20212;-68
2023/09/29 09:52:56;;;;;;;14.90;3.87;;;;;;;21.76;69.95;101186.97;5033180;28;20196;-67
2023/09/29 09:55:33;;;;;;;5.37;4.87;;;;;;;21.74;69.25;101185.50;5032895;28;20583;-67
2023/09/29 09:58:10;;;;;;;4.80;4.47;;;;;;;21.80;69.66;101188.22;5033416;28;20641;-67
2023/09/29 10:00:40;;;;;;;5.40;5.03;;;;;;;21.83;70.39;101197.81;5033616;28;20533;-67
2023/09/29 10:03:14;;;;;;;5.13;4.67;;;;;;;21.78;69.06;101187.56;5033050;28;20246;-67
2023/09/29 10:05:49;;;;;;;4.97;4.73;;;;;;;21.75;69.73;101193.44;5033164;28;20540;-67
2023/09/29 10:08:30;;;;;;;7.67;4.27;;;;;;;21.75;68.58;101195.34;5033568;28;20191;-67
2023/09/29 10:11:10;;;;;;;7.80;4.47;;;;;;;21.73;70.73;101195.53;5033268;28;20609;-67
2023/09/29 10:13:40;;;;;;;5.27;4.27;;;;;;;21.76;69.88;101197.84;5033088;28;20207;-68
2023/09/29 10:16:06;;;;;;;10.90;4.30;;;;;;;21.94;70.42;101197.19;5033100;28;20176;-67
2023/09/29 10:18:33;;;;;;;13.97;5.07;;;;;;;21.90;70.54;101201.34;5032920;28;20188;-67
2023/09/29 10:21:08;;;;;;;12.40;4.23;;;;;;;21.97;70.33;101196.78;5033961;28;20261;-67
2023/09/29 10:23:50;;;;;;;13.17;3.83;;;;;;;21.87;68.83;101196.34;5036416;28;20221;-67
2023/09/29 10:26:19;;;;;;;5.73;4.97;;;;;;;21.88;69.35;101193.41;5036782;28;20264;-68
2023/09/29 10:28:46;;;;;;;8.47;3.30;;;;;;;21.82;69.38;101193.41;5037272;28;20238;-67
2023/09/29 10:31:17;;;;;;;3.73;3.63;;;;;;;21.76;69.00;101197.00;5036585;28;20270;-67
2023/09/29 10:33:54;;;;;;;7.80;3.70;;;;;;;21.69;68.62;101199.72;5036612;28;20180;-67
2023/09/29 10:36:27;;;;;;;3.97;3.77;;;;;;;21.73;68.67;101209.16;5036210;28;20238;-67
2023/09/29 10:38:57;;;;;;;4.63;3.60;;;;;;;21.84;68.36;101202.22;5036531;28;20176;-67
2023/09/29 10:41:25;;;;;;;15.13;4.20;;;;;;;21.84;68.77;101207.66;5036391;28;20227;-67
2023/09/29 10:44:01;;;;;;;3.60;3.50;;;;;;;21.77;69.79;101210.38;5036683;28;20544;-67
2023/09/29 10:46:28;;;;;;;5.63;3.77;;;;;;;21.78;69.45;101213.94;5036354;28;20195;-67
2023/09/29 10:48:55;;;;;;;5.80;3.67;;;;;;;21.63;69.45;101211.50;5036339;28;20612;-66
2023/09/29 10:51:24;;;;;;;4.17;4.03;;;;;;;21.75;70.00;101217.94;5035943;28;20553;-67
2023/09/29 10:53:51;;;;;;;4.57;4.47;;;;;;;21.90;68.55;101214.16;5036155;28;20540;-68
2023/09/29 10:56:23;;;;;;;5.93;3.87;;;;;;;22.02;67.89;101215.19;5035884;28;20191;-67
2023/09/29 10:58:54;;;;;;;8.00;3.27;;;;;;;22.03;69.30;101217.69;5036101;28;20249;-67
2023/09/29 11:01:28;;;;;;;4.57;4.37;;;;;;;21.88;66.98;101209.75;5036050;28;20212;-68
2023/09/29 11:03:56;;;;;;;4.43;4.23;;;;;;;21.93;67.51;101216.47;5036241;28;20198;-67
2023/09/29 11:06:24;;;;;;;4.40;3.80;;;;;;;21.91;68.13;101210.34;5035667;28;20222;-67
2023/09/29 11:08:58;;;;;;;14.93;3.87;;;;;;;21.97;69.37;101223.16;5035935;28;20188;-67
2023/09/29 11:11:27;;;;;;;11.03;3.57;;;;;;;22.05;66.58;101215.59;5035633;28;20257;-67
2023/09/29 11:13:57;;;;;;;4.00;3.67;;;;;;;22.12;66.96;101221.84;5035775;28;20197;-66
2023/09/29 11:16:27;;;;;;;5.33;3.77;;;;;;;22.08;66.38;101226.06;5035601;28;20574;-67
2023/09/29 11:18:56;;;;;;;4.63;4.33;;;;;;;22.17;67.28;101234.81;5035479;28;20184;-67
2023/09/29 11:21:41;;;;;;;5.63;4.37;;;;;;;22.06;63.88;101224.59;5035368;28;20211;-67
2023/09/29 11:24:18;;;;;;;4.13;3.90;;;;;;;22.05;65.14;101239.25;5035631;28;20200;-68
2023/09/29 11:26:48;;;;;;;5.13;4.63;;;;;;;22.22;65.05;101235.84;5035603;28;20709;-67
2023/09/29 11:29:22;;;;;;;5.27;4.23;;;;;;;22.25;65.70;101229.97;5035327;28;20196;-67